Time;durP1;ratioP1;P1;durP2;ratioP2;P2;SDS_P1;SDS_P2;PMS_P1;PMS_P2;Temp;Humidity;BMP_temperature;BMP_pressure;BME280_temperature;BME280_humidity;BME280_pressure;Samples;Min_cycle;Max_cycle;Signal;HPM_P1;HPM_P2
2021/12/18 00:01:40;;;;;;;30.38;16.70;;;3.80;99.90;;;;;;5010458;28;20069;-69
2021/12/18 00:04:08;;;;;;;28.15;17.05;;;3.80;99.90;;;;;;5022870;28;20050;-69
2021/12/18 00:06:35;;;;;;;28.00;17.05;;;3.80;99.90;;;;;;5020663;28;20458;-69
2021/12/18 00:09:07;;;;;;;32.08;16.67;;;3.80;99.90;;;;;;5013467;28;20073;-69
2021/12/18 00:11:34;;;;;;;29.73;16.45;;;3.80;99.90;;;;;;5010666;28;20050;-70
2021/12/18 00:14:02;;;;;;;27.15;15.88;;;3.80;99.90;;;;;;5024934;28;20053;-69
2021/12/18 00:16:29;;;;;;;34.55;17.23;;;3.80;99.90;;;;;;5010474;28;20349;-69
2021/12/18 00:18:58;;;;;;;25.65;14.43;;;3.70;99.90;;;;;;5011888;28;20046;-69
2021/12/18 00:21:26;;;;;;;28.67;15.60;;;3.80;99.90;;;;;;5008876;28;20041;-70
2021/12/18 00:23:53;;;;;;;28.67;16.02;;;3.70;99.90;;;;;;5023266;28;20048;-70
2021/12/18 00:26:22;;;;;;;28.60;15.98;;;3.80;99.90;;;;;;5009130;28;20373;-70
2021/12/18 00:28:49;;;;;;;28.63;16.17;;;3.80;99.90;;;;;;5010090;28;20077;-70
2021/12/18 00:31:16;;;;;;;27.42;15.80;;;3.80;99.90;;;;;;5008222;28;20050;-70
2021/12/18 00:33:44;;;;;;;32.83;17.98;;;3.80;99.90;;;;;;5012604;28;20042;-70
2021/12/18 00:36:11;;;;;;;27.27;15.75;;;3.80;99.90;;;;;;5013136;28;20401;-70
2021/12/18 00:38:40;;;;;;;29.20;15.80;;;3.80;99.90;;;;;;5008681;28;20428;-70
2021/12/18 00:44:00;;;;;;;26.17;15.50;;;3.80;99.90;;;;;;5021467;28;20153;-70
2021/12/18 00:46:26;;;;;;;28.45;15.18;;;3.80;99.90;;;;;;5012250;28;20049;-70
2021/12/18 00:48:53;;;;;;;27.88;16.83;;;3.90;99.90;;;;;;5009632;28;20784;-70
2021/12/18 00:51:21;;;;;;;24.25;15.55;;;3.90;99.90;;;;;;5019997;28;20041;-70
2021/12/18 00:53:49;;;;;;;28.92;15.82;;;4.00;99.90;;;;;;5027501;28;20507;-70
2021/12/18 00:56:17;;;;;;;27.73;16.48;;;4.00;99.90;;;;;;5029404;28;20060;-70
2021/12/18 00:58:44;;;;;;;26.77;16.15;;;4.00;99.90;;;;;;5027296;28;20049;-70
2021/12/18 01:01:12;;;;;;;26.58;16.27;;;4.00;99.90;;;;;;5017713;28;20045;-70
2021/12/18 01:03:41;;;;;;;27.73;16.42;;;4.00;99.90;;;;;;5028643;28;20038;-70
2021/12/18 01:06:09;;;;;;;24.77;15.02;;;3.90;99.90;;;;;;5009177;28;20042;-70
2021/12/18 01:08:37;;;;;;;27.38;15.70;;;4.00;99.90;;;;;;5009486;28;20050;-70
2021/12/18 01:13:44;;;;;;;30.13;16.67;;;4.00;99.90;;;;;;5021445;28;20072;-70
2021/12/18 01:16:19;;;;;;;28.00;16.20;;;4.10;99.90;;;;;;5027703;28;20049;-70
2021/12/18 01:24:18;;;;;;;28.63;16.70;;;4.10;99.90;;;;;;5011394;28;20046;-70
2021/12/18 01:26:45;;;;;;;30.40;17.70;;;4.10;99.90;;;;;;5027544;28;20449;-70
2021/12/18 01:29:12;;;;;;;27.83;17.30;;;4.10;99.90;;;;;;5024373;28;20049;-70
2021/12/18 01:31:39;;;;;;;27.70;16.05;;;4.10;99.90;;;;;;5028155;28;20041;-70
2021/12/18 01:34:07;;;;;;;29.83;17.27;;;4.00;99.90;;;;;;5015797;28;20073;-70
2021/12/18 01:36:34;;;;;;;30.38;17.02;;;4.00;99.90;;;;;;5014175;28;20045;-70
2021/12/18 01:39:03;;;;;;;27.67;16.58;;;4.00;99.90;;;;;;4999437;28;20424;-70
2021/12/18 01:41:39;;;;;;;31.27;18.40;;;4.10;99.90;;;;;;5015350;28;20056;-70
2021/12/18 01:54:25;;;;;;;29.90;17.98;;;4.10;99.90;;;;;;5060347;28;20071;-70
2021/12/18 01:56:53;;;;;;;32.05;17.73;;;4.10;99.90;;;;;;5014110;28;20496;-70
2021/12/18 01:59:43;;;;;;;28.38;16.40;;;4.00;99.90;;;;;;5045954;28;20041;-70
2021/12/18 02:02:11;;;;;;;27.45;16.48;;;4.00;99.90;;;;;;5028502;28;20045;-70
2021/12/18 02:04:38;;;;;;;31.55;17.33;;;4.10;99.90;;;;;;5024203;28;20650;-70
2021/12/18 02:07:07;;;;;;;30.42;17.83;;;4.00;99.90;;;;;;5025836;28;20034;-70
2021/12/18 02:10:01;;;;;;;29.40;17.23;;;4.00;99.90;;;;;;5031433;28;20065;-70
2021/12/18 02:13:23;;;;;;;27.35;16.92;;;3.90;99.90;;;;;;5017617;28;20052;-70
2021/12/18 02:21:06;;;;;;;30.50;17.33;;;3.90;99.90;;;;;;5026034;28;20508;-70
2021/12/18 02:23:36;;;;;;;31.60;17.48;;;3.90;99.90;;;;;;5023285;28;20452;-70
2021/12/18 02:26:04;;;;;;;27.77;17.10;;;3.90;99.90;;;;;;5018084;28;20047;-70
2021/12/18 02:28:31;;;;;;;29.73;17.35;;;3.90;99.90;;;;;;5031435;28;20053;-70
2021/12/18 02:30:59;;;;;;;32.15;18.10;;;4.00;99.90;;;;;;5028633;28;20073;-70
2021/12/18 02:33:27;;;;;;;29.20;17.30;;;3.90;99.90;;;;;;5019311;28;20054;-70
2021/12/18 02:35:57;;;;;;;32.35;18.08;;;3.90;99.90;;;;;;5029101;28;20045;-70
2021/12/18 02:38:43;;;;;;;32.45;17.95;;;3.90;99.90;;;;;;5030605;28;20050;-70
2021/12/18 02:43:40;;;;;;;30.00;18.52;;;3.90;99.90;;;;;;5030743;28;20440;-70
2021/12/18 02:46:09;;;;;;;31.02;17.60;;;3.90;99.90;;;;;;5031096;28;20044;-70
2021/12/18 02:48:40;;;;;;;31.65;17.30;;;3.90;99.90;;;;;;5029472;28;20049;-70
2021/12/18 02:51:09;;;;;;;30.92;18.25;;;3.90;99.90;;;;;;5031415;28;20085;-70
2021/12/18 02:53:41;;;;;;;31.35;17.90;;;3.90;99.90;;;;;;5031543;28;20408;-70
2021/12/18 02:56:10;;;;;;;34.13;17.80;;;3.90;99.90;;;;;;5030963;28;20045;-70
2021/12/18 02:58:39;;;;;;;29.02;16.08;;;3.90;99.90;;;;;;5034969;28;20045;-70
2021/12/18 03:01:08;;;;;;;30.75;17.30;;;3.90;99.90;;;;;;5030483;28;20112;-70
2021/12/18 03:03:38;;;;;;;30.17;17.35;;;3.90;99.90;;;;;;5031614;28;20041;-70
2021/12/18 03:25:16;;;;;;;32.53;17.98;;;4.00;99.90;;;;;;5006486;28;20421;-70
2021/12/18 03:27:44;;;;;;;30.15;17.50;;;3.90;99.90;;;;;;5008634;28;20046;-70
2021/12/18 03:30:12;;;;;;;30.60;17.08;;;3.90;99.90;;;;;;4991363;28;20080;-70
2021/12/18 03:32:39;;;;;;;31.77;18.52;;;4.00;99.90;;;;;;5008767;28;20057;-70
2021/12/18 03:35:07;;;;;;;30.98;16.70;;;3.90;99.90;;;;;;5025360;28;20436;-70
2021/12/18 03:37:36;;;;;;;32.45;17.60;;;3.90;99.90;;;;;;4992412;28;20416;-70
2021/12/18 03:40:07;;;;;;;31.17;17.10;;;3.90;99.90;;;;;;5007102;28;20057;-70
2021/12/18 03:42:34;;;;;;;28.98;16.98;;;3.90;99.90;;;;;;5007200;28;20058;-70
2021/12/18 03:45:05;;;;;;;32.03;18.27;;;3.90;99.90;;;;;;5006521;28;20033;-70
2021/12/18 03:47:32;;;;;;;30.75;17.60;;;3.90;99.90;;;;;;5007454;28;20050;-69
2021/12/18 03:50:00;;;;;;;32.45;18.27;;;3.90;99.90;;;;;;5005935;28;20046;-69
2021/12/18 03:52:27;;;;;;;31.63;16.55;;;3.80;99.90;;;;;;4990561;28;20049;-69
2021/12/18 03:54:54;;;;;;;34.13;18.83;;;3.80;99.90;;;;;;5010439;28;20057;-69
2021/12/18 03:57:21;;;;;;;29.42;16.60;;;3.80;99.90;;;;;;5022120;28;20041;-69
2021/12/18 03:59:49;;;;;;;30.77;17.38;;;3.80;99.90;;;;;;5030708;28;20053;-69
2021/12/18 04:02:17;;;;;;;29.85;16.48;;;3.80;99.90;;;;;;5030036;28;20033;-69
2021/12/18 04:04:44;;;;;;;30.38;16.85;;;3.90;99.90;;;;;;5029340;28;20052;-69
2021/12/18 04:07:11;;;;;;;31.35;15.98;;;3.90;99.90;;;;;;5029966;28;20052;-69
2021/12/18 04:09:38;;;;;;;26.30;16.17;;;3.90;99.90;;;;;;5029059;28;20061;-69
2021/12/18 04:12:06;;;;;;;28.38;16.13;;;4.00;99.90;;;;;;5031184;28;20058;-69
2021/12/18 04:14:34;;;;;;;30.20;16.77;;;4.00;99.90;;;;;;5029489;28;20514;-69
2021/12/18 04:17:03;;;;;;;29.30;16.25;;;4.00;99.90;;;;;;5028674;28;20061;-69
2021/12/18 04:19:30;;;;;;;32.65;18.30;;;4.00;99.90;;;;;;5029215;28;20041;-70
2021/12/18 04:21:58;;;;;;;26.67;15.85;;;4.00;99.90;;;;;;5027939;28;20046;-70
2021/12/18 04:24:25;;;;;;;29.27;16.00;;;3.90;99.90;;;;;;5027871;28;20474;-69
2021/12/18 04:26:52;;;;;;;30.92;16.90;;;4.00;99.90;;;;;;5029301;28;20046;-71
2021/12/18 04:29:20;;;;;;;31.85;16.38;;;4.00;99.90;;;;;;5011442;28;20455;-69
2021/12/18 04:31:47;;;;;;;30.67;16.98;;;4.00;99.90;;;;;;4990978;28;20092;-70
2021/12/18 04:34:14;;;;;;;33.97;16.98;;;4.00;99.90;;;;;;5023408;28;20128;-69
2021/12/18 04:36:41;;;;;;;30.27;17.13;;;4.00;99.90;;;;;;5028544;28;20041;-70
2021/12/18 04:39:08;;;;;;;31.20;16.48;;;4.00;99.90;;;;;;5027863;28;20041;-69
2021/12/18 04:41:43;;;;;;;34.55;18.00;;;4.00;99.90;;;;;;5027314;28;20045;-69
2021/12/18 04:44:10;;;;;;;29.85;17.17;;;4.00;99.90;;;;;;5027281;28;20052;-69
2021/12/18 04:46:37;;;;;;;29.83;16.77;;;4.00;99.90;;;;;;5028073;28;20052;-70
2021/12/18 04:49:05;;;;;;;30.05;17.33;;;4.00;99.90;;;;;;5011316;28;20045;-69
2021/12/18 04:51:32;;;;;;;31.38;17.48;;;3.90;99.90;;;;;;5028385;28;20049;-69
2021/12/18 04:53:59;;;;;;;30.85;17.35;;;3.90;99.90;;;;;;5023866;28;20084;-69
2021/12/18 04:56:27;;;;;;;31.55;17.63;;;3.90;99.90;;;;;;5027188;28;20079;-70
2021/12/18 04:58:54;;;;;;;34.92;18.40;;;3.90;99.90;;;;;;5029386;28;20527;-69
2021/12/18 05:01:21;;;;;;;32.10;18.48;;;3.80;99.90;;;;;;5028933;28;20373;-71
2021/12/18 05:03:49;;;;;;;30.13;16.50;;;3.80;99.90;;;;;;5011800;28;20478;-69
2021/12/18 05:06:17;;;;;;;31.00;16.98;;;3.80;99.90;;;;;;5025788;28;20451;-69
2021/12/18 05:08:44;;;;;;;32.65;17.35;;;3.80;99.90;;;;;;5028732;28;20400;-69
2021/12/18 05:11:11;;;;;;;33.38;17.80;;;3.80;99.90;;;;;;5028781;28;20053;-69
2021/12/18 05:13:39;;;;;;;32.78;17.55;;;3.80;99.90;;;;;;5029476;28;20496;-69
2021/12/18 05:16:06;;;;;;;34.75;18.27;;;3.80;99.90;;;;;;5026767;28;20052;-69
2021/12/18 05:18:33;;;;;;;29.63;17.17;;;3.80;99.90;;;;;;5027895;28;20060;-69
2021/12/18 05:21:01;;;;;;;36.78;18.58;;;3.80;99.90;;;;;;5028210;28;20057;-70
2021/12/18 05:23:28;;;;;;;34.53;18.00;;;3.80;99.90;;;;;;5028875;28;20068;-70
2021/12/18 05:25:55;;;;;;;36.28;18.80;;;3.80;99.90;;;;;;5011133;28;20064;-70
2021/12/18 05:28:23;;;;;;;30.83;18.58;;;3.80;99.90;;;;;;5028976;28;20046;-70
2021/12/18 05:30:50;;;;;;;34.22;18.88;;;3.80;99.90;;;;;;5031627;28;20516;-70
2021/12/18 05:33:17;;;;;;;33.20;18.45;;;3.80;99.90;;;;;;5027655;28;20127;-70
2021/12/18 05:35:44;;;;;;;31.33;17.50;;;3.80;99.90;;;;;;5026054;28;20085;-70
2021/12/18 05:38:12;;;;;;;31.80;17.63;;;3.80;99.90;;;;;;5027297;28;20057;-70
2021/12/18 05:40:39;;;;;;;31.38;18.15;;;3.90;99.90;;;;;;5026015;28;20049;-70
2021/12/18 05:43:08;;;;;;;31.48;17.67;;;3.90;99.90;;;;;;5025112;28;20508;-70
2021/12/18 05:45:37;;;;;;;29.35;17.25;;;3.90;99.90;;;;;;5028470;28;20562;-70
2021/12/18 05:48:05;;;;;;;36.83;19.65;;;3.90;99.90;;;;;;5027600;28;20068;-70
2021/12/18 05:50:32;;;;;;;32.15;17.48;;;3.90;99.90;;;;;;5026815;28;20518;-70
2021/12/18 05:53:00;;;;;;;32.78;17.77;;;3.90;99.90;;;;;;5028690;28;20045;-70
2021/12/18 05:55:30;;;;;;;32.40;18.33;;;3.90;99.90;;;;;;5026387;28;20041;-70
2021/12/18 05:57:58;;;;;;;32.10;17.67;;;3.90;99.90;;;;;;5031131;28;20053;-70
2021/12/18 06:00:25;;;;;;;31.80;18.27;;;3.90;99.90;;;;;;5025850;28;20046;-70
2021/12/18 06:02:52;;;;;;;31.33;17.42;;;3.80;99.90;;;;;;5026914;28;20053;-70
2021/12/18 06:05:19;;;;;;;31.50;18.00;;;3.80;99.90;;;;;;5059180;28;20097;-70
2021/12/18 06:10:28;;;;;;;28.05;16.38;;;3.80;99.90;;;;;;5027319;28;20045;-70
2021/12/18 06:12:57;;;;;;;30.00;17.15;;;3.80;99.90;;;;;;5028345;28;20079;-70
2021/12/18 06:15:26;;;;;;;31.15;17.23;;;3.80;99.90;;;;;;5027897;28;20045;-70
2021/12/18 06:17:55;;;;;;;29.33;16.60;;;3.80;99.90;;;;;;5027922;28;20476;-70
2021/12/18 06:20:23;;;;;;;28.90;16.00;;;3.80;99.90;;;;;;5029025;28;20482;-70
2021/12/18 06:22:50;;;;;;;24.00;15.15;;;3.80;99.90;;;;;;5028286;28;20088;-70
2021/12/18 06:25:18;;;;;;;26.45;16.52;;;3.80;99.90;;;;;;5027980;28;20486;-70
2021/12/18 06:27:45;;;;;;;31.80;16.55;;;3.80;99.90;;;;;;5026935;28;20037;-70
2021/12/18 06:30:15;;;;;;;28.73;17.27;;;3.80;99.90;;;;;;5026020;28;20045;-70
2021/12/18 06:32:42;;;;;;;29.05;17.92;;;3.80;99.90;;;;;;5026937;28;20049;-70
2021/12/18 06:35:10;;;;;;;34.00;17.67;;;3.80;99.90;;;;;;5027824;28;20046;-70
2021/12/18 06:37:37;;;;;;;29.73;17.40;;;3.80;99.90;;;;;;5027005;28;20056;-70
2021/12/18 06:40:05;;;;;;;33.13;18.10;;;3.80;99.90;;;;;;5021660;28;20050;-70
2021/12/18 06:42:39;;;;;;;30.00;17.90;;;3.80;99.90;;;;;;5028371;28;20444;-70
2021/12/18 06:45:07;;;;;;;31.30;18.60;;;3.80;99.90;;;;;;5027145;28;20042;-70
2021/12/18 06:47:35;;;;;;;33.88;19.20;;;3.80;99.90;;;;;;5026818;28;20045;-70
2021/12/18 06:50:04;;;;;;;30.88;18.35;;;3.80;99.90;;;;;;5029781;28;20539;-70
2021/12/18 06:52:32;;;;;;;31.40;17.35;;;3.90;99.90;;;;;;5031027;28;20049;-70
2021/12/18 06:54:59;;;;;;;32.75;18.85;;;3.90;99.90;;;;;;5030886;28;20060;-70
2021/12/18 06:57:26;;;;;;;34.28;18.08;;;3.90;99.90;;;;;;5033986;28;20481;-70
2021/12/18 06:59:54;;;;;;;33.83;18.45;;;3.90;99.90;;;;;;5021714;28;20431;-70
2021/12/18 07:02:21;;;;;;;30.92;16.38;;;3.80;99.90;;;;;;5029439;28;20037;-69
2021/12/18 07:04:51;;;;;;;31.60;17.70;;;3.90;99.90;;;;;;5031742;28;20061;-71
2021/12/18 07:07:19;;;;;;;34.38;17.33;;;3.90;99.90;;;;;;5030774;28;20452;-70
2021/12/18 07:09:46;;;;;;;29.05;16.17;;;3.90;99.90;;;;;;5031578;28;20042;-70
2021/12/18 07:12:13;;;;;;;27.98;16.95;;;3.90;99.90;;;;;;5031203;28;20053;-70
2021/12/18 07:14:40;;;;;;;26.75;16.05;;;3.90;99.90;;;;;;5031117;28;20064;-70
2021/12/18 07:17:08;;;;;;;29.90;16.33;;;3.80;99.90;;;;;;5029890;28;20052;-70
2021/12/18 07:19:35;;;;;;;28.80;16.67;;;3.90;99.90;;;;;;5030341;28;20052;-70
2021/12/18 07:22:02;;;;;;;29.80;18.27;;;3.90;99.90;;;;;;5030770;28;20064;-70
2021/12/18 07:24:30;;;;;;;27.80;16.40;;;3.90;99.90;;;;;;5029575;28;20587;-70
2021/12/18 07:26:57;;;;;;;25.70;15.55;;;3.90;99.90;;;;;;5030977;28;20121;-69
2021/12/18 07:29:25;;;;;;;28.85;16.25;;;4.00;99.90;;;;;;5030149;28;20049;-70
2021/12/18 07:31:52;;;;;;;28.13;16.13;;;4.00;99.90;;;;;;5028453;28;20053;-69
2021/12/18 07:34:20;;;;;;;27.83;15.95;;;3.90;99.90;;;;;;5029807;28;20045;-69
2021/12/18 07:36:47;;;;;;;26.33;15.52;;;3.90;99.90;;;;;;5028707;28;20061;-69
2021/12/18 07:39:15;;;;;;;24.95;15.50;;;4.00;99.90;;;;;;5029975;28;20419;-69
2021/12/18 07:41:43;;;;;;;26.58;16.23;;;4.00;99.90;;;;;;5029163;28;20050;-69
2021/12/18 07:44:10;;;;;;;27.55;16.20;;;3.90;99.90;;;;;;5030001;28;20044;-69
2021/12/18 07:46:38;;;;;;;26.20;14.95;;;3.90;99.90;;;;;;5028114;28;20431;-69
2021/12/18 07:49:07;;;;;;;25.52;14.98;;;3.90;99.90;;;;;;5025382;28;20132;-69
2021/12/18 07:51:35;;;;;;;31.13;18.45;;;3.90;99.90;;;;;;5030059;28;20115;-69
2021/12/18 07:54:05;;;;;;;30.40;16.75;;;3.80;99.90;;;;;;5030078;28;20053;-69
2021/12/18 07:56:33;;;;;;;26.60;16.55;;;3.80;99.90;;;;;;5029061;28;20053;-69
2021/12/18 07:59:01;;;;;;;27.02;15.32;;;3.90;99.90;;;;;;5031367;28;20079;-68
2021/12/18 08:01:29;;;;;;;29.23;17.02;;;3.90;99.90;;;;;;5029550;28;20115;-69
2021/12/18 08:03:56;;;;;;;30.00;17.27;;;3.90;99.90;;;;;;5029526;28;20060;-68
2021/12/18 08:06:24;;;;;;;28.70;15.43;;;3.90;99.90;;;;;;5030558;28;20780;-69
2021/12/18 08:08:51;;;;;;;29.02;15.93;;;3.90;99.90;;;;;;5023782;28;20084;-69
2021/12/18 08:11:18;;;;;;;25.50;15.40;;;3.90;99.90;;;;;;5030276;28;20496;-69
2021/12/18 08:13:48;;;;;;;31.25;16.10;;;4.00;99.90;;;;;;5029702;28;20037;-68
2021/12/18 08:16:15;;;;;;;25.88;15.60;;;4.00;99.90;;;;;;4999151;28;20049;-68
2021/12/18 08:18:42;;;;;;;24.77;14.57;;;4.00;99.90;;;;;;5018141;28;20053;-68
2021/12/18 08:21:10;;;;;;;22.20;14.25;;;3.90;99.90;;;;;;5010441;28;20041;-68
2021/12/18 08:23:37;;;;;;;24.58;14.75;;;4.00;99.90;;;;;;5010683;28;20050;-68
2021/12/18 08:26:04;;;;;;;24.58;14.63;;;4.00;99.90;;;;;;5025311;28;20049;-68
2021/12/18 08:28:31;;;;;;;26.17;15.15;;;4.00;99.90;;;;;;5010764;28;20497;-69
2021/12/18 08:30:59;;;;;;;25.40;15.35;;;4.10;99.90;;;;;;5024495;28;20500;-69
2021/12/18 08:33:27;;;;;;;27.10;15.05;;;4.10;99.90;;;;;;5030079;28;20037;-69
2021/12/18 08:35:54;;;;;;;21.65;14.20;;;4.20;99.90;;;;;;5029951;28;20050;-69
2021/12/18 08:38:21;;;;;;;25.00;15.13;;;4.20;99.90;;;;;;5028786;28;20060;-69
2021/12/18 08:40:50;;;;;;;27.50;15.40;;;4.20;99.90;;;;;;5029844;28;20067;-69
2021/12/18 08:43:17;;;;;;;24.25;14.82;;;4.20;99.90;;;;;;5028521;28;20049;-69
2021/12/18 08:45:45;;;;;;;25.52;15.57;;;4.20;99.90;;;;;;5030070;28;20818;-68
2021/12/18 08:48:12;;;;;;;27.38;16.00;;;4.30;99.90;;;;;;5029684;28;20042;-68
2021/12/18 08:50:40;;;;;;;24.70;15.52;;;4.40;99.90;;;;;;5030024;28;20096;-68
2021/12/18 08:53:09;;;;;;;23.23;14.35;;;4.40;99.90;;;;;;5028248;28;20049;-69
2021/12/18 08:55:36;;;;;;;28.67;17.30;;;4.40;99.90;;;;;;5024214;28;20053;-68
2021/12/18 08:58:04;;;;;;;27.27;15.65;;;4.40;99.90;;;;;;5032735;28;20538;-68
2021/12/18 09:00:32;;;;;;;26.95;15.35;;;4.40;99.90;;;;;;5026054;28;20499;-68
2021/12/18 09:03:00;;;;;;;26.42;15.02;;;4.40;99.90;;;;;;5028973;28;20037;-69
2021/12/18 09:05:29;;;;;;;28.83;15.93;;;4.40;99.90;;;;;;5028803;28;20048;-69
2021/12/18 09:07:57;;;;;;;29.73;16.88;;;4.40;99.90;;;;;;5028490;28;20489;-69
2021/12/18 09:10:25;;;;;;;26.77;15.52;;;4.50;99.90;;;;;;5026938;28;20057;-69
2021/12/18 09:12:54;;;;;;;28.90;15.70;;;4.40;99.90;;;;;;5028547;28;20435;-68
2021/12/18 09:15:22;;;;;;;25.85;16.02;;;4.40;99.90;;;;;;5028282;28;20041;-70
2021/12/18 09:17:49;;;;;;;28.67;15.73;;;4.50;99.90;;;;;;5027734;28;20041;-68
2021/12/18 09:20:17;;;;;;;30.10;16.92;;;4.50;99.90;;;;;;5028112;28;20037;-68
2021/12/18 09:22:45;;;;;;;29.58;16.13;;;4.50;99.90;;;;;;5028580;28;20040;-69
2021/12/18 09:25:13;;;;;;;31.90;17.38;;;4.40;99.90;;;;;;5028748;28;20056;-68
2021/12/18 09:27:40;;;;;;;25.75;15.20;;;4.50;99.90;;;;;;5028342;28;20095;-69
2021/12/18 09:30:12;;;;;;;30.50;16.35;;;4.50;99.90;;;;;;5028532;28;20055;-68
2021/12/18 09:32:40;;;;;;;28.92;16.40;;;4.50;99.90;;;;;;5028650;28;20052;-69
2021/12/18 09:35:08;;;;;;;27.33;16.33;;;4.50;99.90;;;;;;5028130;28;20172;-69
2021/12/18 09:37:37;;;;;;;29.08;17.58;;;4.40;99.90;;;;;;5026662;28;20057;-69
2021/12/18 09:40:07;;;;;;;28.15;16.80;;;4.40;99.90;;;;;;5011501;28;20381;-69
2021/12/18 09:42:36;;;;;;;29.67;15.77;;;4.30;99.90;;;;;;5026818;28;20041;-69
2021/12/18 09:45:05;;;;;;;30.65;16.23;;;4.30;99.90;;;;;;5028945;28;20531;-69
2021/12/18 09:47:32;;;;;;;27.88;16.27;;;4.30;99.90;;;;;;5025661;28;20046;-69
2021/12/18 09:50:00;;;;;;;26.75;15.98;;;4.30;99.90;;;;;;5026879;28;20037;-69
2021/12/18 09:52:30;;;;;;;26.48;16.13;;;4.40;99.90;;;;;;5028400;28;20488;-69
2021/12/18 09:54:58;;;;;;;29.25;15.93;;;4.40;99.90;;;;;;5024155;28;20041;-69
2021/12/18 09:57:26;;;;;;;24.98;15.48;;;4.40;99.90;;;;;;5024118;28;20602;-69
2021/12/18 09:59:53;;;;;;;26.00;15.60;;;4.40;99.90;;;;;;5027042;28;20452;-68
2021/12/18 10:02:20;;;;;;;25.77;15.65;;;4.50;99.90;;;;;;5025938;28;20073;-68
2021/12/18 10:04:48;;;;;;;26.75;15.80;;;4.50;99.90;;;;;;5022711;28;20088;-69
2021/12/18 10:07:23;;;;;;;31.30;16.75;;;4.40;99.90;;;;;;5021271;28;20107;-68
2021/12/18 10:09:56;;;;;;;30.38;17.10;;;4.50;99.90;;;;;;5033177;28;20048;-69
2021/12/18 10:12:29;;;;;;;33.05;18.17;;;4.50;99.90;;;;;;5028801;28;20049;-68
2021/12/18 10:15:05;;;;;;;33.40;19.30;;;4.50;99.90;;;;;;5029315;28;20050;-69
2021/12/18 10:17:36;;;;;;;39.50;23.27;;;4.50;99.90;;;;;;5024876;28;20409;-70
2021/12/18 10:20:23;;;;;;;33.17;18.95;;;4.50;99.90;;;;;;5035759;28;20389;-70
2021/12/18 10:22:57;;;;;;;31.95;18.08;;;4.40;99.90;;;;;;5026678;28;20045;-69
2021/12/18 10:25:26;;;;;;;30.35;18.00;;;4.40;99.90;;;;;;5032537;28;20084;-69
2021/12/18 10:28:13;;;;;;;29.27;17.80;;;4.40;99.90;;;;;;5031011;28;20048;-69
2021/12/18 10:30:58;;;;;;;29.25;17.48;;;4.30;99.90;;;;;;5030267;28;20061;-69
2021/12/18 10:33:28;;;;;;;31.02;18.35;;;4.30;99.90;;;;;;5026594;28;20045;-69
2021/12/18 10:35:59;;;;;;;30.20;16.73;;;4.30;99.90;;;;;;5030270;28;20890;-69
2021/12/18 10:38:41;;;;;;;29.48;17.17;;;4.30;99.90;;;;;;4998113;28;20049;-69
2021/12/18 10:41:47;;;;;;;32.20;16.77;;;4.30;99.90;;;;;;5026327;28;20079;-69
2021/12/18 10:44:14;;;;;;;31.35;17.17;;;4.40;99.90;;;;;;5020764;28;20037;-69
2021/12/18 10:46:44;;;;;;;27.35;15.75;;;4.40;99.90;;;;;;5027011;28;20049;-69
2021/12/18 10:49:14;;;;;;;26.33;16.23;;;4.40;99.90;;;;;;5027413;28;20053;-69
2021/12/18 10:51:42;;;;;;;28.92;16.38;;;4.40;99.90;;;;;;5025226;28;20057;-69
2021/12/18 10:54:16;;;;;;;19.80;12.35;;;4.40;99.90;;;;;;5012152;28;20451;-68
2021/12/18 10:56:46;;;;;;;14.48;8.10;;;4.40;99.90;;;;;;5027981;28;20060;-68
2021/12/18 10:59:21;;;;;;;20.05;11.25;;;4.50;99.90;;;;;;5033089;28;20492;-68
2021/12/18 11:01:52;;;;;;;22.83;13.23;;;4.50;99.90;;;;;;5027330;28;20096;-69
2021/12/18 11:04:42;;;;;;;25.10;13.77;;;4.60;99.90;;;;;;5028030;28;20508;-68
2021/12/18 11:07:30;;;;;;;24.25;13.55;;;4.60;99.90;;;;;;5028417;28;20647;-68
2021/12/18 11:10:13;;;;;;;22.85;13.20;;;4.60;99.90;;;;;;5027831;28;20072;-69
2021/12/18 11:15:26;;;;;;;27.58;14.45;;;4.70;99.90;;;;;;5021224;28;20046;-68
2021/12/18 11:17:54;;;;;;;23.73;13.85;;;4.60;99.90;;;;;;5029946;28;20144;-70
2021/12/18 11:20:21;;;;;;;20.85;11.77;;;4.60;99.90;;;;;;5027251;28;20064;-68
2021/12/18 11:22:49;;;;;;;19.23;11.57;;;4.50;99.90;;;;;;5027366;28;20033;-68
2021/12/18 11:25:16;;;;;;;18.92;10.77;;;4.50;99.90;;;;;;5029394;28;20073;-69
2021/12/18 11:27:46;;;;;;;20.25;11.85;;;4.40;99.90;;;;;;5029514;28;20049;-68
2021/12/18 11:30:17;;;;;;;21.58;13.02;;;4.30;99.90;;;;;;5030584;28;20100;-68
2021/12/18 11:32:53;;;;;;;19.35;11.52;;;4.30;99.90;;;;;;5030173;28;20060;-68
2021/12/18 11:35:23;;;;;;;21.45;12.32;;;4.20;99.90;;;;;;5030642;28;20045;-68
2021/12/18 11:37:55;;;;;;;21.23;11.52;;;4.20;99.90;;;;;;5027936;28;20129;-69
2021/12/18 11:40:32;;;;;;;21.30;12.60;;;4.20;99.90;;;;;;5029630;28;20574;-69
2021/12/18 11:42:59;;;;;;;19.20;11.68;;;4.20;99.90;;;;;;5030142;28;20037;-69
2021/12/18 11:45:32;;;;;;;23.08;12.32;;;4.30;99.90;;;;;;5029558;28;20053;-69
2021/12/18 11:48:00;;;;;;;20.48;12.00;;;4.30;99.90;;;;;;5030296;28;20049;-69
2021/12/18 11:50:36;;;;;;;17.90;11.40;;;4.40;99.90;;;;;;5028863;28;20191;-69
2021/12/18 11:53:07;;;;;;;21.25;12.27;;;4.40;99.90;;;;;;5029237;28;20140;-69
2021/12/18 11:55:49;;;;;;;19.63;11.25;;;4.50;99.90;;;;;;5028827;28;20054;-69
2021/12/18 11:58:20;;;;;;;20.33;12.20;;;4.50;99.90;;;;;;5025535;28;20046;-69
2021/12/18 12:01:11;;;;;;;23.65;12.75;;;4.60;99.90;;;;;;5028493;28;20061;-69
2021/12/18 12:03:43;;;;;;;22.88;12.73;;;4.70;99.90;;;;;;5022358;28;20119;-69
2021/12/18 12:06:28;;;;;;;22.30;13.13;;;4.70;99.90;;;;;;5018411;28;20496;-68
2021/12/18 12:09:27;;;;;;;22.15;12.63;;;4.70;99.90;;;;;;5027626;28;20128;-69
2021/12/18 12:12:00;;;;;;;20.70;12.57;;;4.70;99.90;;;;;;5025663;28;20496;-68
2021/12/18 12:14:29;;;;;;;20.23;11.20;;;4.70;99.90;;;;;;5028072;28;20045;-68
2021/12/18 12:17:24;;;;;;;20.05;11.63;;;4.70;99.90;;;;;;5029399;28;20049;-68
2021/12/18 12:19:54;;;;;;;20.63;11.48;;;4.80;99.90;;;;;;5029344;28;20049;-68
2021/12/18 12:22:39;;;;;;;21.33;12.23;;;4.80;99.90;;;;;;5028620;28;20048;-69
2021/12/18 12:25:15;;;;;;;21.88;11.85;;;4.80;99.90;;;;;;5027407;28;20037;-68
2021/12/18 12:27:45;;;;;;;20.83;12.73;;;4.70;99.90;;;;;;5027494;28;20057;-68
2021/12/18 12:30:34;;;;;;;20.33;12.70;;;4.70;99.90;;;;;;5029031;28;20124;-69
2021/12/18 12:33:04;;;;;;;20.80;12.38;;;4.70;99.90;;;;;;5028592;28;20041;-68
2021/12/18 12:35:58;;;;;;;19.77;11.68;;;4.70;99.90;;;;;;5028564;28;20053;-68
2021/12/18 12:38:35;;;;;;;24.05;12.20;;;4.70;99.90;;;;;;5027079;28;20045;-68
2021/12/18 12:41:26;;;;;;;25.60;13.68;;;4.70;99.90;;;;;;5027853;28;20057;-69
2021/12/18 12:44:01;;;;;;;21.77;12.43;;;4.70;99.90;;;;;;5027390;28;20503;-68
2021/12/18 12:46:30;;;;;;;21.33;12.73;;;4.70;99.90;;;;;;5018758;28;20045;-67
2021/12/18 12:49:02;;;;;;;21.17;11.80;;;4.70;99.90;;;;;;5026768;28;20095;-67
2021/12/18 12:51:49;;;;;;;;;;;4.70;99.90;;;;;;5024019;28;20041;-68
2021/12/18 12:54:54;;;;;;;24.27;12.77;;;4.70;99.90;;;;;;5021562;28;20028;-68
2021/12/18 12:57:28;;;;;;;23.45;12.85;;;4.70;99.90;;;;;;5028844;28;20115;-68
2021/12/18 12:59:58;;;;;;;23.65;12.63;;;4.70;99.90;;;;;;5029723;28;20083;-67
2021/12/18 13:02:27;;;;;;;22.08;12.55;;;4.60;99.90;;;;;;5026957;28;20041;-68
2021/12/18 13:05:06;;;;;;;22.73;12.73;;;4.50;99.90;;;;;;5027801;28;20479;-68
2021/12/18 13:07:34;;;;;;;28.52;14.07;;;4.50;99.90;;;;;;5027709;28;20139;-68
2021/12/18 13:10:02;;;;;;;22.20;12.73;;;4.50;99.90;;;;;;5028802;28;20052;-68
2021/12/18 13:12:29;;;;;;;23.20;13.80;;;4.50;99.90;;;;;;5022918;28;20486;-68
2021/12/18 13:14:57;;;;;;;22.83;13.25;;;4.50;99.90;;;;;;5026423;28;20069;-68
2021/12/18 13:17:26;;;;;;;22.42;13.43;;;4.50;99.90;;;;;;5028159;28;20049;-71
2021/12/18 13:19:59;;;;;;;22.23;13.25;;;4.40;99.90;;;;;;5024906;28;20100;-69
2021/12/18 13:22:32;;;;;;;19.98;12.38;;;4.40;99.90;;;;;;5025291;28;20345;-69
2021/12/18 13:25:11;;;;;;;22.65;12.55;;;4.30;99.90;;;;;;5028520;28;20042;-69
2021/12/18 13:27:43;;;;;;;21.60;12.63;;;4.40;99.90;;;;;;5027430;28;20052;-70
2021/12/18 13:30:21;;;;;;;;;;;4.40;99.90;;;;;;5027559;28;20517;-70
2021/12/18 13:32:56;;;;;;;20.27;11.75;;;4.30;99.90;;;;;;5026472;28;19932;-69
2021/12/18 13:35:26;;;;;;;23.52;13.73;;;4.30;99.90;;;;;;5018003;28;20053;-69
2021/12/18 13:38:06;;;;;;;41.15;20.33;;;4.30;99.90;;;;;;5023464;28;20073;-69
2021/12/18 13:40:42;;;;;;;27.95;15.63;;;4.30;99.90;;;;;;5029153;28;20494;-71
2021/12/18 13:43:18;;;;;;;23.38;13.35;;;4.30;99.90;;;;;;5023218;28;20041;-70
2021/12/18 13:45:58;;;;;;;22.98;13.05;;;4.30;99.90;;;;;;5027337;28;20464;-70
2021/12/18 13:48:32;;;;;;;25.15;14.30;;;4.20;99.90;;;;;;5028496;28;20045;-71